Time;durP1;ratioP1;P1;durP2;ratioP2;P2;SDS_P1;SDS_P2;PMS_P1;PMS_P2;Temp;Humidity;BMP_temperature;BMP_pressure;BME280_temperature;BME280_humidity;BME280_pressure;Samples;Min_cycle;Max_cycle;Signal;HPM_P1;HPM_P2
2023/10/11 00:02:55;;;;;;;0.00;0.00;;;;;;;13.78;100.00;100296.31;4922284;29;20032;-74
2023/10/11 00:05:22;;;;;;;0.00;0.00;;;;;;;13.89;100.00;100308.03;4927164;28;20071;-74
2023/10/11 00:07:48;;;;;;;0.00;0.00;;;;;;;13.94;100.00;100310.72;4906342;29;20039;-74
2023/10/11 00:10:19;;;;;;;0.00;0.00;;;;;;;13.92;100.00;100308.25;4930107;28;20090;-74
2023/10/11 00:12:50;;;;;;;0.00;0.00;;;;;;;13.93;100.00;100298.06;4930741;29;20035;-75
2023/10/11 00:15:16;;;;;;;0.00;0.00;;;;;;;13.92;100.00;100291.78;4944097;28;20505;-73
2023/10/11 00:17:45;;;;;;;0.00;0.00;;;;;;;14.02;100.00;100323.00;4923320;29;20039;-75
2023/10/11 00:20:27;;;;;;;0.00;0.00;;;;;;;13.99;100.00;100305.19;4928427;28;20042;-73
2023/10/11 00:22:53;;;;;;;0.00;0.00;;;;;;;14.02;100.00;100295.50;4919192;29;20031;-76
2023/10/11 00:25:24;;;;;;;0.00;0.00;;;;;;;14.07;100.00;100299.03;4897024;28;20039;-74
2023/10/11 00:27:58;;;;;;;0.00;0.00;;;;;;;14.09;100.00;100296.81;4938451;28;20019;-74
2023/10/11 00:30:29;;;;;;;0.00;0.00;;;;;;;14.10;100.00;100303.94;4923935;28;20155;-75
2023/10/11 00:32:55;;;;;;;0.00;0.00;;;;;;;13.87;100.00;100293.75;4924835;29;20115;-74
2023/10/11 00:35:24;;;;;;;0.00;0.00;;;;;;;13.83;100.00;100303.69;4941923;28;20102;-74
2023/10/11 00:37:51;;;;;;;0.00;0.00;;;;;;;13.84;100.00;100299.84;4929024;28;20493;-75
2023/10/11 00:40:27;;;;;;;0.00;0.00;;;;;;;13.87;100.00;100299.25;4921068;29;20035;-74
2023/10/11 00:42:56;;;;;;;0.00;0.00;;;;;;;13.80;100.00;100305.09;4923758;29;20364;-74
2023/10/11 00:45:23;;;;;;;0.00;0.00;;;;;;;13.72;100.00;100302.97;4922501;29;20095;-74
2023/10/11 00:47:55;;;;;;;0.00;0.00;;;;;;;13.79;100.00;100309.75;4921642;28;20030;-75
2023/10/11 00:50:24;;;;;;;0.00;0.00;;;;;;;13.92;100.00;100313.75;4935700;28;20122;-75
2023/10/11 00:52:50;;;;;;;0.00;0.00;;;;;;;14.02;100.00;100312.84;4945036;28;20023;-74
2023/10/11 00:55:23;;;;;;;0.00;0.00;;;;;;;14.16;100.00;100314.88;4939016;28;20217;-75
2023/10/11 00:57:49;;;;;;;0.00;0.00;;;;;;;14.19;100.00;100295.03;4906962;29;20047;-74
2023/10/11 01:00:16;;;;;;;0.00;0.00;;;;;;;14.29;100.00;100300.41;4921234;28;20134;-75
2023/10/11 01:02:45;;;;;;;0.00;0.00;;;;;;;14.31;100.00;100304.53;4933710;28;20040;-75
2023/10/11 01:05:12;;;;;;;0.00;0.00;;;;;;;14.34;100.00;100307.78;4921540;28;20019;-75
2023/10/11 01:07:38;;;;;;;0.00;0.00;;;;;;;14.30;100.00;100291.06;4928740;29;20367;-74
2023/10/11 01:10:06;;;;;;;0.00;0.00;;;;;;;14.40;100.00;100310.19;4910694;28;20035;-74
2023/10/11 01:12:32;;;;;;;0.00;0.00;;;;;;;14.42;100.00;100299.69;4914884;29;20043;-75
2023/10/11 01:14:58;;;;;;;0.00;0.00;;;;;;;14.41;100.00;100297.25;4899223;28;20023;-74
2023/10/11 01:17:26;;;;;;;0.00;0.00;;;;;;;14.43;100.00;100278.53;4927508;28;20745;-74
2023/10/11 01:19:52;;;;;;;0.00;0.00;;;;;;;14.47;100.00;100285.06;4935598;28;20035;-74
2023/10/11 01:22:18;;;;;;;0.00;0.00;;;;;;;14.45;100.00;100285.34;4944825;28;20032;-74
2023/10/11 01:24:47;;;;;;;0.00;0.00;;;;;;;14.46;100.00;100284.25;4934219;28;20028;-75
2023/10/11 01:27:16;;;;;;;0.00;0.00;;;;;;;14.35;100.00;100257.97;4942466;28;20041;-74
2023/10/11 01:29:41;;;;;;;0.00;0.00;;;;;;;14.58;100.00;100278.31;4940914;28;20035;-74
2023/10/11 01:32:07;;;;;;;0.00;0.00;;;;;;;14.58;100.00;100277.50;4941420;28;20082;-72
2023/10/11 01:34:32;;;;;;;0.00;0.00;;;;;;;14.67;100.00;100284.00;4943915;28;20133;-73
2023/10/11 01:36:59;;;;;;;0.00;0.00;;;;;;;14.72;100.00;100274.84;4929685;29;20023;-74
2023/10/11 01:39:24;;;;;;;0.00;0.00;;;;;;;14.80;100.00;100288.75;4934239;28;20126;-75
2023/10/11 01:41:54;;;;;;;0.00;0.00;;;;;;;14.82;100.00;100281.03;4905563;28;20134;-73
2023/10/11 01:44:22;;;;;;;0.00;0.00;;;;;;;14.94;100.00;100288.03;4909752;28;20031;-73
2023/10/11 01:46:49;;;;;;;0.00;0.00;;;;;;;14.94;100.00;100290.78;4953105;28;20027;-75
2023/10/11 01:49:14;;;;;;;0.00;0.00;;;;;;;15.03;100.00;100286.22;4939590;28;20030;-75
2023/10/11 01:51:46;;;;;;;0.00;0.00;;;;;;;15.02;100.00;100273.56;4938408;28;20031;-74
2023/10/11 01:54:12;;;;;;;0.00;0.00;;;;;;;15.06;100.00;100268.28;4934420;29;20458;-73
2023/10/11 01:56:41;;;;;;;0.00;0.00;;;;;;;15.08;100.00;100269.59;4948003;28;20027;-73
2023/10/11 01:59:07;;;;;;;0.00;0.00;;;;;;;15.08;100.00;100255.84;4944138;28;20030;-73
2023/10/11 02:01:41;;;;;;;0.00;0.00;;;;;;;15.08;100.00;100255.84;4913810;28;20031;-74
2023/10/11 02:04:17;;;;;;;0.00;0.00;;;;;;;15.11;100.00;100260.78;4908908;28;20036;-73
2023/10/11 02:06:43;;;;;;;0.00;0.00;;;;;;;15.17;100.00;100259.56;4916104;28;20035;-73
2023/10/11 02:09:10;;;;;;;0.00;0.00;;;;;;;15.13;100.00;100247.50;4936592;28;20019;-73
2023/10/11 02:11:41;;;;;;;0.00;0.00;;;;;;;15.15;100.00;100239.75;4934705;28;20095;-73
2023/10/11 02:14:07;;;;;;;0.00;0.00;;;;;;;15.15;100.00;100237.00;4925487;28;20026;-74
2023/10/11 02:16:33;;;;;;;0.00;0.00;;;;;;;15.17;100.00;100237.53;4941998;28;20359;-74
2023/10/11 02:19:01;;;;;;;0.00;0.00;;;;;;;15.21;100.00;100231.41;4926163;28;20106;-74
2023/10/11 02:21:29;;;;;;;0.00;0.00;;;;;;;15.12;100.00;100217.50;4931656;29;20035;-75
2023/10/11 02:23:56;;;;;;;0.00;0.00;;;;;;;15.17;100.00;100221.00;4923502;28;20478;-74
2023/10/11 02:26:32;;;;;;;0.00;0.00;;;;;;;15.14;100.00;100213.34;4936960;28;20074;-73
2023/10/11 02:29:06;;;;;;;0.00;0.00;;;;;;;15.16;100.00;100213.84;4944119;28;20027;-74
2023/10/11 02:31:33;;;;;;;0.00;0.00;;;;;;;15.01;100.00;100206.66;4946239;28;20035;-74
2023/10/11 02:34:12;;;;;;;0.00;0.00;;;;;;;15.11;100.00;100222.22;4921912;28;20031;-74
2023/10/11 02:36:41;;;;;;;0.00;0.00;;;;;;;15.11;100.00;100211.19;4944476;28;20027;-73
2023/10/11 02:39:07;;;;;;;0.00;0.00;;;;;;;15.15;100.00;100206.69;4940027;28;20024;-75
2023/10/11 02:41:32;;;;;;;0.00;0.00;;;;;;;15.16;100.00;100219.34;4916975;28;20101;-73
2023/10/11 02:43:58;;;;;;;0.00;0.00;;;;;;;15.16;100.00;100224.88;4938563;28;20047;-74
2023/10/11 02:46:24;;;;;;;0.00;0.00;;;;;;;15.18;100.00;100228.13;4943857;28;20044;-75
2023/10/11 02:48:54;;;;;;;0.00;0.00;;;;;;;15.18;100.00;100222.63;4945637;28;20028;-74
2023/10/11 02:51:24;;;;;;;0.00;0.00;;;;;;;15.17;100.00;100215.50;4925805;29;20019;-75
2023/10/11 02:53:53;;;;;;;0.00;0.00;;;;;;;15.21;100.00;100214.88;4911428;28;20074;-74
2023/10/11 02:56:19;;;;;;;0.00;0.00;;;;;;;15.25;100.00;100215.91;4932659;28;20055;-77
2023/10/11 02:58:44;;;;;;;0.00;0.00;;;;;;;15.23;100.00;100204.38;4919588;28;20115;-74
2023/10/11 03:01:20;;;;;;;0.00;0.00;;;;;;;15.24;100.00;100214.28;4915629;29;20036;-77
2023/10/11 03:03:47;;;;;;;0.00;0.00;;;;;;;15.24;100.00;100208.75;4901134;29;20032;-77
2023/10/11 03:06:13;;;;;;;0.00;0.00;;;;;;;15.25;100.00;100204.91;4882097;29;20091;-74
2023/10/11 03:08:43;;;;;;;0.00;0.00;;;;;;;15.25;100.00;100200.19;4906533;29;20016;-73
2023/10/11 03:11:15;;;;;;;0.00;0.00;;;;;;;15.27;100.00;100202.66;4899436;29;20452;-74
2023/10/11 03:13:41;;;;;;;0.00;0.00;;;;;;;15.29;100.00;100206.75;4901588;29;20028;-74
2023/10/11 03:16:13;;;;;;;0.00;0.00;;;;;;;15.24;100.00;100192.25;4889918;29;20032;-75
2023/10/11 03:18:40;;;;;;;0.00;0.00;;;;;;;15.30;100.00;100215.81;4922677;29;20027;-74
2023/10/11 03:21:19;;;;;;;0.00;0.00;;;;;;;15.29;100.00;100205.94;4898119;29;20120;-74
2023/10/11 03:24:03;;;;;;;0.00;0.00;;;;;;;15.32;100.00;100199.81;4907245;29;20120;-74
2023/10/11 03:28:57;;;;;;;0.00;0.00;;;;;;;15.30;100.00;100191.03;4895263;29;20065;-74
2023/10/11 03:31:28;;;;;;;0.00;0.00;;;;;;;15.35;100.00;100191.75;4866398;29;21293;-75
2023/10/11 03:34:01;;;;;;;0.00;0.00;;;;;;;15.32;100.00;100186.84;4912929;29;20537;-75
2023/10/11 03:36:31;;;;;;;0.00;0.00;;;;;;;15.32;100.00;100183.28;4916152;29;20028;-73
2023/10/11 03:38:58;;;;;;;0.00;0.00;;;;;;;15.31;100.00;100187.16;4901625;29;20055;-74
2023/10/11 03:41:29;;;;;;;0.00;0.00;;;;;;;15.21;100.00;100173.56;4914148;29;20043;-75
2023/10/11 03:44:09;;;;;;;0.00;0.00;;;;;;;15.23;100.00;100179.56;4902624;29;20043;-75
2023/10/11 03:46:35;;;;;;;0.00;0.00;;;;;;;15.15;100.00;100176.41;4904637;29;20391;-76
2023/10/11 03:49:35;;;;;;;0.00;0.00;;;;;;;15.07;100.00;100168.84;4905232;29;20467;-76
2023/10/11 03:51:51;;;;;;;0.00;0.00;;;;;;;14.98;100.00;100151.38;4889878;29;20556;-75
2023/10/11 03:54:26;;;;;;;0.00;0.00;;;;;;;15.18;100.00;100178.53;4905161;29;20032;-76
2023/10/11 03:56:53;;;;;;;0.00;0.00;;;;;;;15.13;100.00;100170.38;4909547;29;20160;-76
2023/10/11 03:59:25;;;;;;;0.00;0.00;;;;;;;15.23;100.00;100179.56;4906031;28;20095;-76
2023/10/11 04:02:02;;;;;;;0.00;0.00;;;;;;;15.21;100.00;100177.13;4948954;28;20458;-75
2023/10/11 04:04:28;;;;;;;0.00;0.00;;;;;;;15.18;100.00;100173.03;4936332;28;20027;-74
2023/10/11 04:07:00;;;;;;;0.00;0.00;;;;;;;15.27;100.00;100180.59;4904949;29;20026;-75
2023/10/11 04:09:37;;;;;;;0.00;0.00;;;;;;;15.32;100.00;100178.59;4928479;28;20035;-75
2023/10/11 04:12:10;;;;;;;0.00;0.00;;;;;;;15.32;100.00;100159.28;4930242;28;20035;-75
2023/10/11 04:14:44;;;;;;;0.00;0.00;;;;;;;15.31;100.00;100143.06;4938179;28;20398;-76
2023/10/11 04:19:49;;;;;;;0.00;0.00;;;;;;;15.31;100.00;100148.59;4928329;29;20483;-76
2023/10/11 04:22:23;;;;;;;0.00;0.00;;;;;;;15.38;100.00;100159.22;4934285;28;20114;-75
2023/10/11 04:24:53;;;;;;;0.00;0.00;;;;;;;15.38;100.00;100160.03;4929001;28;20027;-76
2023/10/11 04:29:51;;;;;;;0.00;0.00;;;;;;;15.38;100.00;100149.00;4961372;28;20034;-76
2023/10/11 04:35:02;;;;;;;;;;;;;;;15.49;100.00;100158.72;4952630;28;20489;-75
2023/10/11 04:37:30;;;;;;;0.00;0.00;;;;;;;15.49;100.00;100166.13;4947559;28;19910;-75
2023/10/11 04:40:00;;;;;;;0.00;0.00;;;;;;;15.46;100.00;100148.31;4937199;29;20035;-73
2023/10/11 04:42:29;;;;;;;0.00;0.00;;;;;;;15.54;100.00;100144.00;4937129;28;20046;-76
2023/10/11 04:44:55;;;;;;;0.00;0.00;;;;;;;15.59;100.00;100143.09;4954981;28;20027;-77
2023/10/11 04:47:23;;;;;;;0.00;0.00;;;;;;;15.66;100.00;100143.50;4916654;28;20457;-76
2023/10/11 04:49:52;;;;;;;0.00;0.00;;;;;;;15.67;100.00;100145.13;4928326;29;20035;-76
2023/10/11 04:52:23;;;;;;;0.00;0.00;;;;;;;15.75;100.00;100144.41;4949552;28;20055;-76
2023/10/11 04:54:55;;;;;;;0.00;0.00;;;;;;;15.77;100.00;100147.69;4909273;28;20118;-76
2023/10/11 04:57:32;;;;;;;0.00;0.00;;;;;;;15.79;100.00;100158.44;4937735;28;20561;-76
2023/10/11 05:00:00;;;;;;;0.00;0.00;;;;;;;15.79;100.00;100148.22;4937971;28;20041;-77
2023/10/11 05:02:32;;;;;;;0.00;0.00;;;;;;;15.79;100.00;100148.22;4941592;28;20056;-76
2023/10/11 05:05:05;;;;;;;0.00;0.00;;;;;;;15.78;100.00;100152.06;4964160;28;20030;-77
2023/10/11 05:07:32;;;;;;;0.00;0.00;;;;;;;15.76;100.00;100148.78;4940527;28;20034;-75
2023/10/11 05:10:22;;;;;;;0.00;0.00;;;;;;;15.81;100.00;100154.25;4938297;28;20066;-76
2023/10/11 05:13:04;;;;;;;0.00;0.00;;;;;;;15.79;100.00;100162.00;4942505;28;20031;-75
2023/10/11 05:15:42;;;;;;;0.00;0.00;;;;;;;15.87;100.00;100177.81;4953893;28;20015;-76
2023/10/11 05:18:09;;;;;;;0.00;0.00;;;;;;;15.88;100.00;100171.16;4951265;28;20471;-75
2023/10/11 05:23:06;;;;;;;0.00;0.00;;;;;;;15.84;100.00;100161.06;4958393;28;20027;-77
2023/10/11 05:25:39;;;;;;;0.00;0.00;;;;;;;15.88;100.00;100151.84;4935661;29;20134;-77
2023/10/11 05:28:26;;;;;;;0.00;0.00;;;;;;;15.84;100.00;100137.09;4933921;29;20027;-77
2023/10/11 05:52:44;;;;;;;0.00;0.00;;;;;;;15.91;100.00;100135.84;4940887;28;20042;-77
2023/10/11 05:55:10;;;;;;;0.00;0.00;;;;;;;15.93;100.00;100137.16;4896837;28;20035;-78
2023/10/11 05:57:35;;;;;;;0.00;0.00;;;;;;;16.01;100.00;100146.66;4900480;28;20066;-75
2023/10/11 06:00:10;;;;;;;0.00;0.00;;;;;;;16.03;100.00;100134.19;4927981;29;20054;-74
2023/10/11 06:02:38;;;;;;;0.00;0.00;;;;;;;16.04;100.00;100137.75;4918834;28;20039;-72
2023/10/11 06:05:04;;;;;;;0.00;0.00;;;;;;;15.96;100.00;100128.28;4930033;29;20456;-74
2023/10/11 06:07:37;;;;;;;0.00;0.00;;;;;;;15.99;100.00;100140.59;4922250;28;20039;-75
2023/10/11 06:10:06;;;;;;;0.00;0.00;;;;;;;15.98;100.00;100133.47;4938183;28;20039;-75
2023/10/11 06:12:33;;;;;;;0.00;0.00;;;;;;;16.05;100.00;100147.66;4922490;28;20062;-75
2023/10/11 06:15:04;;;;;;;0.00;0.00;;;;;;;16.06;100.00;100152.03;4946368;28;20035;-75
2023/10/11 06:17:41;;;;;;;0.00;0.00;;;;;;;16.03;100.00;100147.97;4935079;28;20043;-72
2023/10/11 06:20:26;;;;;;;0.00;0.00;;;;;;;15.98;100.00;100155.53;4941197;28;20035;-74
2023/10/11 06:23:02;;;;;;;0.00;0.00;;;;;;;15.98;100.00;100169.34;4943487;28;20035;-76
2023/10/11 06:28:14;;;;;;;0.00;0.00;;;;;;;15.77;100.00;100155.13;4944201;28;20094;-75
2023/10/11 06:31:06;;;;;;;0.00;0.00;;;;;;;15.85;100.00;100170.97;4942855;28;20114;-76
2023/10/11 06:33:34;;;;;;;0.00;0.00;;;;;;;16.01;100.00;100193.53;4943823;28;20041;-75
2023/10/11 06:36:00;;;;;;;0.00;0.00;;;;;;;15.98;100.00;100199.66;4938909;28;20052;-76
2023/10/11 06:38:29;;;;;;;0.00;0.00;;;;;;;15.97;100.00;100192.50;4939901;28;20427;-75
2023/10/11 06:41:36;;;;;;;0.00;0.00;;;;;;;16.00;100.00;100187.22;4902363;29;20094;-77
2023/10/11 06:43:40;;;;;;;0.00;0.00;;;;;;;15.96;100.00;100177.09;4928980;28;20363;-79
2023/10/11 06:46:07;;;;;;;0.00;0.00;;;;;;;16.07;100.00;100197.81;4916146;28;20031;-75
2023/10/11 06:48:32;;;;;;;0.00;0.00;;;;;;;15.91;100.00;100182.72;4910095;29;20040;-74
2023/10/11 06:51:05;;;;;;;0.00;0.00;;;;;;;15.87;100.00;100176.97;4913519;29;20034;-76
2023/10/11 06:53:33;;;;;;;0.00;0.00;;;;;;;15.95;100.00;100200.28;4927771;29;20027;-75
2023/10/11 06:55:58;;;;;;;0.00;0.00;;;;;;;16.01;100.00;100199.06;4932605;28;20110;-77
2023/10/11 06:58:24;;;;;;;0.00;0.00;;;;;;;15.95;100.00;100200.28;4945996;28;20058;-75
2023/10/11 07:00:50;;;;;;;0.00;0.00;;;;;;;15.88;100.00;100179.44;4914776;28;20688;-74
2023/10/11 07:06:10;;;;;;;0.00;0.00;;;;;;;15.88;100.00;100193.22;4940472;28;20110;-77
2023/10/11 07:08:35;;;;;;;0.00;0.00;;;;;;;15.91;100.00;100199.25;4934621;28;20057;-76
2023/10/11 07:11:16;;;;;;;0.00;0.00;;;;;;;15.88;100.00;100198.72;4895847;28;20078;-76
2023/10/11 07:13:57;;;;;;;0.00;0.00;;;;;;;15.85;100.00;100201.31;4906755;28;20464;-76
2023/10/11 07:16:27;;;;;;;0.00;0.00;;;;;;;15.87;100.00;100205.41;4933193;28;20078;-77
2023/10/11 07:19:20;;;;;;;0.00;0.00;;;;;;;15.90;100.00;100211.41;4942720;28;20047;-76
2023/10/11 07:21:51;;;;;;;0.00;0.00;;;;;;;15.92;100.00;100211.94;4928400;29;20122;-76
2023/10/11 07:27:07;;;;;;;0.00;0.00;;;;;;;15.88;100.00;100231.00;4940119;28;20478;-75
2023/10/11 07:29:35;;;;;;;0.00;0.00;;;;;;;15.76;100.00;100201.16;4918641;29;20031;-75
2023/10/11 07:32:00;;;;;;;0.00;0.00;;;;;;;15.73;100.00;100204.53;4937115;28;20053;-75
2023/10/11 07:34:26;;;;;;;0.00;0.00;;;;;;;15.78;100.00;100214.66;4918339;29;20478;-76
2023/10/11 07:36:52;;;;;;;0.00;0.00;;;;;;;15.80;100.00;100216.00;4940314;28;20614;-76
2023/10/11 07:39:25;;;;;;;0.00;0.00;;;;;;;15.84;100.00;100200.50;4898065;29;20032;-76
2023/10/11 07:42:00;;;;;;;0.00;0.00;;;;;;;15.84;100.00;100196.91;4929295;28;20035;-75
2023/10/11 07:44:27;;;;;;;;;;;;;;;15.90;100.00;100208.66;4937678;28;20387;-76
2023/10/11 07:46:55;;;;;;;0.00;0.00;;;;;;;15.80;100.00;100193.97;4948402;28;19962;-75
2023/10/11 07:49:24;;;;;;;0.00;0.00;;;;;;;15.74;100.00;100195.16;4925068;29;20034;-76
2023/10/11 07:51:58;;;;;;;0.00;0.00;;;;;;;15.76;100.00;100209.44;4947161;28;20371;-76
2023/10/11 07:54:25;;;;;;;0.00;0.00;;;;;;;15.76;100.00;100203.94;4942493;28;20055;-76
2023/10/11 07:56:55;;;;;;;0.00;0.00;;;;;;;15.83;100.00;100220.91;4901383;28;20038;-76
2023/10/11 07:59:24;;;;;;;0.00;0.00;;;;;;;15.85;100.00;100217.84;4931990;28;20359;-76
2023/10/11 08:01:53;;;;;;;0.00;0.00;;;;;;;15.82;100.00;100205.47;4930441;28;20026;-75
2023/10/11 08:04:22;;;;;;;0.00;0.00;;;;;;;15.85;100.00;100207.63;4902084;28;20546;-75
2023/10/11 08:06:51;;;;;;;0.00;0.00;;;;;;;15.77;100.00;100190.94;4948518;28;20039;-76
2023/10/11 08:09:19;;;;;;;0.00;0.00;;;;;;;15.79;100.00;100197.03;4946199;28;20027;-76
2023/10/11 08:11:59;;;;;;;0.00;0.00;;;;;;;15.92;100.00;100209.19;4937173;28;20110;-76
2023/10/11 08:14:32;;;;;;;0.00;0.00;;;;;;;15.94;100.00;100209.69;4942133;28;20046;-76
2023/10/11 08:16:59;;;;;;;0.00;0.00;;;;;;;15.80;100.00;100182.94;4939243;28;20485;-74
2023/10/11 08:19:25;;;;;;;0.00;0.00;;;;;;;15.97;100.00;100209.88;4939585;28;21072;-76
2023/10/11 08:22:00;;;;;;;0.00;0.00;;;;;;;16.06;100.00;100212.72;4922871;29;20023;-76
2023/10/11 08:24:26;;;;;;;0.00;0.00;;;;;;;16.05;100.00;100202.84;4938813;28;20031;-75
2023/10/11 08:26:53;;;;;;;0.00;0.00;;;;;;;16.09;100.00;100205.78;4928481;28;20671;-75
2023/10/11 08:29:30;;;;;;;0.00;0.00;;;;;;;16.04;100.00;100217.72;4930567;28;20041;-76
2023/10/11 08:31:59;;;;;;;0.00;0.00;;;;;;;15.98;100.00;100216.22;4927197;28;20050;-76
2023/10/11 08:34:26;;;;;;;0.00;0.00;;;;;;;16.02;100.00;100206.22;4921120;28;20679;-76
2023/10/11 08:36:55;;;;;;;0.00;0.00;;;;;;;16.11;100.00;100209.88;4919964;28;20020;-75
2023/10/11 08:39:44;;;;;;;0.00;0.00;;;;;;;16.24;100.00;100213.72;4937040;28;20035;-76
2023/10/11 08:42:14;;;;;;;0.00;0.00;;;;;;;16.31;100.00;100207.78;4920716;28;20042;-75
2023/10/11 08:44:44;;;;;;;0.00;0.00;;;;;;;16.39;100.00;100210.63;4933001;28;20493;-75
2023/10/11 08:47:10;;;;;;;0.00;0.00;;;;;;;16.41;100.00;100202.03;4938271;28;20482;-76
2023/10/11 08:49:41;;;;;;;0.00;0.00;;;;;;;16.36;100.00;100199.41;4905827;28;20032;-76
2023/10/11 08:52:10;;;;;;;0.00;0.00;;;;;;;16.35;100.00;100195.00;4899555;28;20027;-76
2023/10/11 08:54:38;;;;;;;0.00;0.00;;;;;;;16.46;100.00;100192.84;4939699;28;20055;-77
2023/10/11 08:57:04;;;;;;;0.00;0.00;;;;;;;16.44;100.00;100190.41;4946521;28;20122;-76
2023/10/11 08:59:31;;;;;;;0.00;0.00;;;;;;;16.51;100.00;100196.28;4936442;28;20474;-75
2023/10/11 09:02:07;;;;;;;0.00;0.00;;;;;;;16.59;100.00;100191.97;4919438;28;20032;-76
2023/10/11 09:04:35;;;;;;;0.00;0.00;;;;;;;16.66;100.00;100186.00;4923140;28;20031;-74
2023/10/11 09:07:01;;;;;;;0.00;0.00;;;;;;;16.70;100.00;100193.34;4927234;29;20047;-75
2023/10/11 09:09:46;;;;;;;0.00;0.00;;;;;;;16.80;100.00;100191.47;4906671;28;20043;-76
2023/10/11 09:12:23;;;;;;;;;;;;;;;16.92;100.00;100189.81;4944497;28;20042;-76
2023/10/11 09:15:00;;;;;;;0.00;0.00;;;;;;;17.00;100.00;100185.47;4938643;28;19914;-75
2023/10/11 09:17:29;;;;;;;0.00;0.00;;;;;;;17.08;100.00;100192.19;4933898;28;20107;-76
2023/10/11 09:19:58;;;;;;;0.00;0.00;;;;;;;16.97;100.00;100182.50;4927282;28;20821;-76
2023/10/11 09:22:23;;;;;;;0.00;0.00;;;;;;;17.01;100.00;100191.81;4941689;28;20114;-76
2023/10/11 09:25:08;;;;;;;0.00;0.00;;;;;;;16.93;100.00;100174.84;4934819;28;20636;-76
2023/10/11 09:27:50;;;;;;;0.00;0.00;;;;;;;17.03;100.00;100173.78;4928145;28;20031;-75
2023/10/11 09:30:20;;;;;;;0.00;0.00;;;;;;;17.14;99.18;100179.06;4923507;28;20039;-76
2023/10/11 09:32:51;;;;;;;0.00;0.00;;;;;;;17.17;99.27;100193.06;4923911;28;20376;-75
2023/10/11 09:35:28;;;;;;;0.00;0.00;;;;;;;17.26;99.19;100193.13;4921129;28;20031;-75
2023/10/11 09:37:58;;;;;;;0.00;0.00;;;;;;;17.43;97.81;100176.63;4917421;28;20462;-75
2023/10/11 09:40:33;;;;;;;0.00;0.00;;;;;;;17.59;96.97;100179.75;4929082;28;20051;-76
2023/10/11 09:43:04;;;;;;;0.00;0.00;;;;;;;17.62;95.82;100176.38;4937655;28;20026;-75
2023/10/11 09:45:43;;;;;;;0.00;0.00;;;;;;;17.72;94.75;100172.47;4902571;29;20032;-75
2023/10/11 09:48:12;;;;;;;0.00;0.00;;;;;;;18.08;93.71;100178.97;4924152;28;20027;-76
2023/10/11 09:50:41;;;;;;;0.00;0.00;;;;;;;18.37;91.75;100169.22;4905260;29;20047;-76
2023/10/11 09:53:11;;;;;;;0.00;0.00;;;;;;;18.77;88.55;100180.13;4925383;28;20030;-77
2023/10/11 09:55:43;;;;;;;0.00;0.00;;;;;;;19.07;86.79;100188.59;4919312;28;20050;-75
2023/10/11 09:58:28;;;;;;;0.00;0.00;;;;;;;19.75;82.53;100165.69;4936883;28;20522;-75
2023/10/11 10:01:17;;;;;;;0.00;0.00;;;;;;;20.07;79.64;100185.63;4940877;28;20046;-75
2023/10/11 10:03:52;;;;;;;0.00;0.00;;;;;;;19.66;79.75;100177.63;4931312;28;20031;-75
2023/10/11 10:06:18;;;;;;;0.00;0.00;;;;;;;19.33;81.85;100172.72;4925218;28;20050;-75
2023/10/11 10:09:23;;;;;;;0.00;0.00;;;;;;;19.01;82.81;100171.31;4935167;28;20065;-76
2023/10/11 10:12:06;;;;;;;0.00;0.00;;;;;;;18.90;84.90;100170.84;4936472;28;20082;-75
2023/10/11 10:14:33;;;;;;;0.00;0.00;;;;;;;18.85;83.76;100168.22;4943581;28;20035;-75
2023/10/11 10:17:13;;;;;;;0.00;0.00;;;;;;;19.09;82.56;100166.91;4918633;28;20118;-74
2023/10/11 10:19:45;;;;;;;0.00;0.00;;;;;;;19.33;80.72;100153.31;4927264;29;20027;-76
2023/10/11 10:22:27;;;;;;;0.00;0.00;;;;;;;20.04;79.25;100146.25;4946908;28;20382;-76
2023/10/11 10:24:54;;;;;;;0.00;0.00;;;;;;;20.44;76.07;100142.19;4936501;28;20050;-72
2023/10/11 10:27:34;;;;;;;0.00;0.00;;;;;;;20.65;73.75;100158.88;4945395;28;20046;-75
2023/10/11 10:30:04;;;;;;;0.00;0.00;;;;;;;20.83;72.05;100165.09;4935102;28;20120;-75
2023/10/11 10:32:30;;;;;;;0.00;0.00;;;;;;;20.56;73.02;100166.47;4959172;28;20023;-76
2023/10/11 10:35:20;;;;;;;0.00;0.00;;;;;;;20.18;74.54;100184.03;4934295;29;20174;-75
2023/10/11 10:38:03;;;;;;;0.00;0.00;;;;;;;19.96;75.68;100177.69;4934362;28;20084;-75
2023/10/11 10:40:29;;;;;;;0.00;0.00;;;;;;;19.76;76.53;100172.88;4942302;28;20047;-75
2023/10/11 10:43:14;;;;;;;0.00;0.00;;;;;;;19.92;75.53;100165.63;4925070;28;20389;-75
2023/10/11 10:45:40;;;;;;;0.00;0.00;;;;;;;19.97;74.93;100162.63;4949462;28;20037;-75
2023/10/11 10:48:20;;;;;;;0.00;0.00;;;;;;;19.92;75.40;100157.28;4917020;28;20049;-75
2023/10/11 10:50:48;;;;;;;0.00;0.00;;;;;;;19.78;75.95;100159.47;4930990;29;20058;-75
2023/10/11 10:53:15;;;;;;;0.00;0.00;;;;;;;19.61;76.86;100154.81;4944316;28;20040;-75
2023/10/11 10:55:42;;;;;;;0.00;0.00;;;;;;;19.68;77.07;100153.16;4941975;28;20164;-74
2023/10/11 10:58:12;;;;;;;0.00;0.00;;;;;;;19.85;76.32;100157.81;4926093;28;20055;-75
2023/10/11 11:00:40;;;;;;;0.00;0.00;;;;;;;19.81;75.38;100153.28;4915452;29;20482;-76
2023/10/11 11:03:23;;;;;;;0.00;0.00;;;;;;;19.83;75.13;100168.44;4939817;28;20042;-75
2023/10/11 11:05:55;;;;;;;0.00;0.00;;;;;;;19.73;75.12;100167.97;4940305;28;20028;-76
2023/10/11 11:08:25;;;;;;;0.00;0.00;;;;;;;19.71;75.85;100149.72;4925447;28;20438;-76
2023/10/11 11:11:20;;;;;;;0.00;0.00;;;;;;;20.25;74.95;100144.66;4925660;29;20032;-75
2023/10/11 11:13:49;;;;;;;0.00;0.00;;;;;;;20.62;72.90;100145.66;4939357;28;20033;-76
2023/10/11 11:16:22;;;;;;;0.00;0.00;;;;;;;20.84;70.64;100146.47;4922970;29;20386;-75
2023/10/11 11:18:48;;;;;;;0.00;0.00;;;;;;;21.39;69.79;100131.28;4910863;29;20517;-74
2023/10/11 11:21:24;;;;;;;0.00;0.00;;;;;;;21.84;66.23;100137.09;4917670;28;20035;-75
2023/10/11 11:23:50;;;;;;;0.00;0.00;;;;;;;21.45;66.92;100141.03;4941170;29;20111;-75
2023/10/11 11:26:21;;;;;;;0.00;0.00;;;;;;;21.72;66.52;100133.16;4939052;28;20020;-74
2023/10/11 11:28:47;;;;;;;0.00;0.00;;;;;;;21.72;64.92;100135.94;4914502;28;20031;-74
2023/10/11 11:31:13;;;;;;;0.00;0.00;;;;;;;21.13;66.63;100139.94;4949883;28;20110;-75
2023/10/11 11:33:48;;;;;;;0.00;0.00;;;;;;;20.62;68.44;100131.78;4909721;28;20122;-74
2023/10/11 11:36:30;;;;;;;0.00;0.00;;;;;;;20.56;69.36;100133.16;4900109;29;20027;-76
2023/10/11 11:42:18;;;;;;;0.00;0.00;;;;;;;20.79;67.84;100130.81;4870525;29;20082;-76
2023/10/11 11:44:46;;;;;;;0.00;0.00;;;;;;;20.50;68.58;100156.69;4881219;29;20053;-75
2023/10/11 11:47:11;;;;;;;0.00;0.00;;;;;;;20.09;69.93;100122.25;4922550;28;20050;-75
2023/10/11 11:49:37;;;;;;;0.00;0.00;;;;;;;19.81;70.78;100119.97;4928888;28;20405;-74
2023/10/11 11:52:02;;;;;;;0.00;0.00;;;;;;;19.62;71.69;100100.97;4932240;28;20455;-75
2023/10/11 11:54:28;;;;;;;0.00;0.00;;;;;;;19.47;72.29;100105.13;4928237;28;20475;-76
2023/10/11 12:16:50;;;;;;;0.00;0.00;;;;;;;19.86;71.91;100039.34;4910436;28;20070;-75
2023/10/11 12:19:33;;;;;;;;;;;;;;;;;;;;;
2023/10/11 12:21:59;;;;;;;0.00;0.00;;;;;;;20.70;67.05;100022.53;4942156;28;20015;-75
2023/10/11 12:24:25;;;;;;;0.00;0.00;;;;;;;20.53;67.20;100045.75;4932398;28;20455;-76
2023/10/11 12:26:50;;;;;;;0.00;0.00;;;;;;;20.21;69.01;100055.69;4933320;28;20035;-77
2023/10/11 12:29:18;;;;;;;0.00;0.00;;;;;;;20.05;69.47;100061.88;4941511;28;20031;-78
2023/10/11 12:31:44;;;;;;;0.00;0.00;;;;;;;20.10;69.03;100057.25;4911776;28;20035;-76
2023/10/11 12:34:10;;;;;;;0.00;0.00;;;;;;;19.94;69.00;100052.31;4936056;28;20023;-75
2023/10/11 12:36:41;;;;;;;0.00;0.00;;;;;;;19.83;69.66;100023.34;4954427;28;20019;-76
2023/10/11 12:39:08;;;;;;;0.00;0.00;;;;;;;19.98;70.15;100042.16;4944307;28;20032;-76
2023/10/11 12:41:37;;;;;;;0.00;0.00;;;;;;;20.01;69.64;100024.84;4944975;28;20065;-76
2023/10/11 12:44:07;;;;;;;0.00;0.00;;;;;;;20.04;69.51;100015.81;4898221;28;20122;-77
2023/10/11 12:46:33;;;;;;;0.00;0.00;;;;;;;19.99;69.83;100027.16;4928644;29;20058;-76